Time;durP1;ratioP1;P1;durP2;ratioP2;P2;SDS_P1;SDS_P2;PMS_P1;PMS_P2;Temp;Humidity;BMP_temperature;BMP_pressure;BME280_temperature;BME280_humidity;BME280_pressure;Samples;Min_cycle;Max_cycle;Signal;HPM_P1;HPM_P2
2022/12/17 13:07:35;;;;;;;36.73;25.33;;;1.30;99.90;;;;;;5032765;28;20492;-86
2022/12/17 13:10:27;;;;;;;36.93;23.70;;;1.20;99.90;;;;;;5056903;28;20448;-83
2022/12/17 13:12:55;;;;;;;36.50;23.80;;;1.30;99.90;;;;;;5053627;28;20480;-85
2022/12/17 13:15:33;;;;;;;35.60;23.53;;;1.40;99.90;;;;;;5059346;28;20449;-84
2022/12/17 13:18:23;;;;;;;39.30;24.30;;;1.50;99.90;;;;;;5057532;28;20505;-84
2022/12/17 13:21:23;;;;;;;41.13;25.93;;;1.50;99.90;;;;;;5059271;28;20467;-85
2022/12/17 13:23:57;;;;;;;41.07;25.17;;;1.50;99.90;;;;;;5058848;28;20481;-85
2022/12/17 13:26:42;;;;;;;39.03;23.03;;;1.50;99.90;;;;;;5027215;28;20454;-84
2022/12/17 13:29:27;;;;;;;38.67;24.57;;;1.40;99.90;;;;;;5018531;28;20445;-81
2022/12/17 13:32:06;;;;;;;38.80;23.60;;;1.50;99.90;;;;;;5032991;28;20477;-81
2022/12/17 13:35:15;;;;;;;39.23;24.53;;;1.50;99.90;;;;;;5046182;28;20468;-81
2022/12/17 13:38:00;;;;;;;45.45;34.17;;;1.40;99.90;;;;;;5053001;28;20449;-84
2022/12/17 13:40:40;;;;;;;38.37;26.80;;;1.40;99.90;;;;;;5037763;28;20183;-81
2022/12/17 13:43:17;;;;;;;40.33;24.60;;;1.60;99.90;;;;;;5032725;28;20457;-81
2022/12/17 13:48:29;;;;;;;39.47;24.23;;;1.50;99.90;;;;;;5039210;28;21013;-82
2022/12/17 13:51:00;;;;;;;36.60;22.73;;;1.40;99.90;;;;;;5038976;28;20516;-81
2022/12/17 13:53:32;;;;;;;36.20;22.97;;;1.40;99.90;;;;;;5053290;28;20420;-86
2022/12/17 13:56:01;;;;;;;34.10;22.87;;;1.50;99.90;;;;;;5057731;28;20440;-85
2022/12/17 13:58:38;;;;;;;36.97;24.30;;;1.40;99.90;;;;;;5051147;28;20452;-85
2022/12/17 14:01:14;;;;;;;38.30;24.13;;;1.30;99.90;;;;;;5036268;28;20469;-84
2022/12/17 14:03:55;;;;;;;37.73;23.67;;;1.50;99.90;;;;;;5036239;28;20471;-81
2022/12/17 14:06:29;;;;;;;34.90;22.67;;;1.60;99.90;;;;;;5037450;28;20465;-82
2022/12/17 14:09:01;;;;;;;36.33;22.67;;;1.60;99.90;;;;;;5047928;28;20453;-83
2022/12/17 14:14:26;;;;;;;33.93;21.97;;;1.30;99.90;;;;;;5056845;28;20447;-83
2022/12/17 14:17:03;;;;;;;35.23;21.67;;;1.40;99.90;;;;;;5057425;28;20437;-84
2022/12/17 14:19:38;;;;;;;34.23;21.80;;;1.40;99.90;;;;;;5037521;28;20457;-81
2022/12/17 14:22:45;;;;;;;36.17;21.43;;;1.40;99.90;;;;;;5047998;28;20491;-83
2022/12/17 14:25:43;;;;;;;37.73;22.10;;;1.50;99.90;;;;;;5042926;28;20457;-76
2022/12/17 14:28:32;;;;;;;36.03;21.13;;;1.40;99.90;;;;;;5040791;28;20542;-77
2022/12/17 14:34:06;;;;;;;33.17;20.40;;;1.30;99.90;;;;;;5045711;23;20493;-75
2022/12/17 14:36:35;;;;;;;34.80;21.43;;;1.20;99.90;;;;;;5013628;28;20422;-76
2022/12/17 14:39:17;;;;;;;37.67;21.97;;;1.30;99.90;;;;;;5011935;28;20454;-76
2022/12/17 14:44:48;;;;;;;37.97;22.87;;;1.30;99.90;;;;;;5010040;28;20418;-76
2022/12/17 14:47:20;;;;;;;37.20;22.60;;;1.30;99.90;;;;;;5010036;28;20484;-76
2022/12/17 14:49:54;;;;;;;33.00;21.80;;;1.30;99.90;;;;;;5013660;28;20435;-76
2022/12/17 14:52:43;;;;;;;35.87;21.57;;;1.20;99.90;;;;;;5008571;28;20458;-76
2022/12/17 14:55:25;;;;;;;34.27;22.27;;;1.10;99.90;;;;;;5008835;28;20444;-76
2022/12/17 14:58:06;;;;;;;41.80;22.87;;;1.10;99.90;;;;;;4994415;28;20497;-76
2022/12/17 15:00:35;;;;;;;37.93;23.10;;;1.00;99.90;;;;;;5011947;28;20450;-75
2022/12/17 15:03:05;;;;;;;36.17;21.30;;;1.10;99.90;;;;;;5012314;28;20468;-76
2022/12/17 15:05:40;;;;;;;34.63;21.80;;;1.00;99.90;;;;;;5014719;28;20441;-75
2022/12/17 15:08:22;;;;;;;35.57;21.70;;;1.10;99.90;;;;;;5015886;28;20449;-75
2022/12/17 15:10:50;;;;;;;35.27;21.23;;;1.10;99.90;;;;;;5002918;28;20453;-75
2022/12/17 15:13:21;;;;;;;39.80;23.47;;;1.20;99.90;;;;;;5015382;28;20446;-75
2022/12/17 15:15:50;;;;;;;37.67;23.83;;;1.10;99.90;;;;;;5014582;28;20454;-75
2022/12/17 15:18:27;;;;;;;38.50;23.23;;;1.10;99.90;;;;;;5014624;28;20438;-75
2022/12/17 15:20:54;;;;;;;37.37;22.73;;;1.00;99.90;;;;;;5008599;28;20449;-76
2022/12/17 15:23:23;;;;;;;39.93;23.43;;;1.00;99.90;;;;;;5014918;28;20438;-76
2022/12/17 15:25:52;;;;;;;39.67;22.77;;;0.90;99.90;;;;;;5016758;28;20442;-76
2022/12/17 15:28:25;;;;;;;38.53;23.23;;;0.80;99.90;;;;;;5015706;28;20438;-76
2022/12/17 15:30:51;;;;;;;37.77;23.10;;;0.80;99.90;;;;;;5006476;28;20442;-75
2022/12/17 15:33:20;;;;;;;36.03;23.53;;;0.80;99.90;;;;;;5003056;28;20828;-75
2022/12/17 15:35:49;;;;;;;35.10;22.73;;;0.80;99.90;;;;;;5010720;28;20449;-75
2022/12/17 15:38:19;;;;;;;41.43;23.40;;;0.80;99.90;;;;;;5011440;28;20450;-76
2022/12/17 15:40:52;;;;;;;36.43;23.43;;;0.70;99.90;;;;;;5025263;28;20436;-82
2022/12/17 15:46:43;;;;;;;44.53;27.33;;;0.60;99.90;;;;;;5024644;28;20424;-83
2022/12/17 15:49:43;;;;;;;51.07;30.93;;;0.50;99.90;;;;;;5029116;28;20192;-84
2022/12/17 15:55:00;;;;;;;40.17;24.43;;;0.20;99.90;;;;;;5028233;28;20445;-83
2022/12/17 15:57:31;;;;;;;40.57;24.30;;;0.20;99.90;;;;;;5018751;28;20451;-82
2022/12/17 16:00:02;;;;;;;40.57;25.43;;;0.20;99.90;;;;;;5003760;28;20454;-82
2022/12/17 16:02:29;;;;;;;41.97;24.53;;;0.10;99.90;;;;;;5002585;28;20521;-82
2022/12/17 16:05:00;;;;;;;38.27;23.87;;;0.10;99.90;;;;;;4997740;28;20459;-82
2022/12/17 16:07:34;;;;;;;42.70;24.83;;;0.00;99.90;;;;;;5020929;28;20536;-82
2022/12/17 16:10:02;;;;;;;44.53;24.33;;;0.00;99.90;;;;;;4996097;28;20447;-82
2022/12/17 16:12:30;;;;;;;41.60;24.50;;;0.00;99.90;;;;;;4996088;28;20479;-79
2022/12/17 16:14:57;;;;;;;41.27;24.07;;;-0.10;99.90;;;;;;4997466;28;20457;-77
2022/12/17 16:17:24;;;;;;;40.93;24.43;;;-0.20;99.90;;;;;;4996249;28;20454;-77
2022/12/17 16:19:50;;;;;;;44.83;25.07;;;-0.20;99.90;;;;;;4996134;28;20442;-77
2022/12/17 16:22:19;;;;;;;58.10;33.20;;;-0.30;99.90;;;;;;4996224;28;20513;-77
2022/12/17 16:24:46;;;;;;;46.80;25.97;;;-0.30;99.90;;;;;;4996079;28;20457;-77
2022/12/17 16:27:13;;;;;;;44.07;24.90;;;-0.20;99.90;;;;;;4995878;28;20447;-77
2022/12/17 16:29:39;;;;;;;42.17;25.50;;;-0.30;99.90;;;;;;4996053;28;20442;-77
2022/12/17 16:32:06;;;;;;;44.73;25.07;;;-0.30;99.90;;;;;;4993684;28;20462;-77
2022/12/17 16:34:33;;;;;;;55.20;39.75;;;-0.30;99.90;;;;;;4993787;28;20434;-78
2022/12/17 16:37:00;;;;;;;47.43;29.23;;;-0.20;99.90;;;;;;4996512;28;20219;-77
2022/12/17 16:39:28;;;;;;;45.20;28.10;;;-0.20;99.90;;;;;;4996412;28;20500;-78
2022/12/17 16:41:55;;;;;;;47.80;28.23;;;-0.20;99.90;;;;;;4995943;28;20489;-78
2022/12/17 16:44:22;;;;;;;43.47;26.90;;;-0.20;99.90;;;;;;4993261;28;20529;-78
2022/12/17 16:46:50;;;;;;;46.77;26.20;;;-0.30;99.90;;;;;;4994879;28;20996;-78
2022/12/17 16:49:19;;;;;;;46.40;27.27;;;-0.30;99.90;;;;;;4990509;28;20467;-78
2022/12/17 16:51:49;;;;;;;46.80;27.33;;;-0.30;99.90;;;;;;4994230;28;20453;-78
2022/12/17 16:54:19;;;;;;;46.30;27.23;;;-0.30;99.90;;;;;;5009264;28;20461;-78
2022/12/17 16:56:48;;;;;;;48.53;28.57;;;-0.40;99.90;;;;;;4995857;28;20454;-78
2022/12/17 16:59:16;;;;;;;45.17;26.10;;;-0.50;99.90;;;;;;4996200;28;20449;-78
2022/12/17 17:01:45;;;;;;;46.87;27.03;;;-0.50;99.90;;;;;;4995725;28;20486;-78
2022/12/17 17:04:14;;;;;;;42.00;27.00;;;-0.50;99.90;;;;;;4995976;28;20449;-78
2022/12/17 17:06:41;;;;;;;44.73;27.00;;;-0.50;99.90;;;;;;4995972;28;20449;-78
2022/12/17 17:09:08;;;;;;;48.70;27.80;;;-0.50;99.90;;;;;;4995833;28;20447;-77
2022/12/17 17:11:35;;;;;;;51.30;29.03;;;-0.50;99.90;;;;;;4996682;28;20446;-78
2022/12/17 17:14:04;;;;;;;51.63;28.77;;;-0.40;99.90;;;;;;5007611;28;20457;-77
2022/12/17 17:16:32;;;;;;;55.43;31.10;;;-0.40;99.90;;;;;;4997789;28;20822;-77
2022/12/17 17:19:00;;;;;;;54.20;31.07;;;-0.50;99.90;;;;;;5006625;28;21029;-78
2022/12/17 17:21:28;;;;;;;53.83;30.40;;;-0.50;99.90;;;;;;4998255;28;20466;-77
2022/12/17 17:23:58;;;;;;;49.77;30.63;;;-0.70;99.90;;;;;;5000547;28;20450;-78
2022/12/17 17:26:25;;;;;;;56.67;31.07;;;-0.70;99.90;;;;;;4995400;28;20446;-78
2022/12/17 17:28:52;;;;;;;53.40;30.67;;;-0.60;99.90;;;;;;4995566;28;20454;-78
2022/12/17 17:31:21;;;;;;;50.47;30.03;;;-0.50;99.90;;;;;;4995522;28;20461;-78
2022/12/17 17:33:49;;;;;;;50.33;29.77;;;-0.40;99.90;;;;;;4995322;28;20473;-78
2022/12/17 17:36:18;;;;;;;47.97;29.57;;;-0.40;99.90;;;;;;4995391;28;20445;-77
2022/12/17 17:38:46;;;;;;;50.87;29.37;;;-0.40;99.90;;;;;;4995272;28;20458;-78
2022/12/17 17:41:14;;;;;;;47.27;28.13;;;-0.40;99.90;;;;;;4995626;28;20441;-78
2022/12/17 17:43:41;;;;;;;49.77;29.87;;;-0.40;99.90;;;;;;4995859;28;20501;-77
2022/12/17 17:46:10;;;;;;;49.93;30.20;;;-0.40;99.90;;;;;;4995723;28;20538;-78
2022/12/17 17:48:39;;;;;;;52.10;31.27;;;-0.40;99.90;;;;;;4996102;28;20457;-77
2022/12/17 17:51:08;;;;;;;53.40;30.63;;;-0.40;99.90;;;;;;4995968;28;20446;-77
2022/12/17 17:53:36;;;;;;;51.97;29.40;;;-0.50;99.90;;;;;;4995684;28;20437;-78
2022/12/17 17:56:04;;;;;;;56.00;33.60;;;-0.60;99.90;;;;;;4994447;28;20953;-78
2022/12/17 17:58:31;;;;;;;56.33;31.17;;;-0.60;99.90;;;;;;4978805;28;20912;-78
2022/12/17 18:00:58;;;;;;;57.10;32.33;;;-0.60;99.90;;;;;;4988493;28;20469;-80
2022/12/17 18:03:28;;;;;;;63.47;36.97;;;-0.60;99.90;;;;;;5001259;28;20489;-80
2022/12/17 18:06:01;;;;;;;58.97;32.27;;;-0.70;99.90;;;;;;5004146;28;20446;-79
2022/12/17 18:08:29;;;;;;;121.57;50.67;;;-0.60;99.90;;;;;;4988799;28;20514;-78
2022/12/17 18:10:57;;;;;;;94.87;42.90;;;-0.60;99.90;;;;;;4990081;28;20442;-78
2022/12/17 18:16:11;;;;;;;67.43;35.87;;;-0.70;99.90;;;;;;5008126;28;21018;-78
2022/12/17 18:18:39;;;;;;;60.10;33.53;;;-0.70;99.90;;;;;;4995214;28;20457;-78
2022/12/17 18:21:10;;;;;;;73.40;36.17;;;-0.70;99.90;;;;;;4994782;28;20455;-78
2022/12/17 18:23:37;;;;;;;68.20;36.70;;;-0.70;99.90;;;;;;4995018;28;20489;-78
2022/12/17 18:26:06;;;;;;;116.77;49.60;;;-0.70;99.90;;;;;;4996069;28;20442;-79
2022/12/17 18:28:33;;;;;;;81.20;40.00;;;-0.70;99.90;;;;;;4995019;28;20457;-78
2022/12/17 18:31:06;;;;;;;74.40;37.70;;;-0.70;99.90;;;;;;4994801;28;20457;-78
2022/12/17 18:33:34;;;;;;;76.60;40.10;;;-0.70;99.90;;;;;;5007568;28;20477;-78
2022/12/17 18:36:00;;;;;;;99.00;55.60;;;-0.70;99.90;;;;;;4995369;28;20622;-77
2022/12/17 18:38:29;;;;;;;103.63;50.80;;;-0.60;99.90;;;;;;4995213;28;20948;-78
2022/12/17 18:40:55;;;;;;;90.47;43.10;;;-0.50;99.90;;;;;;4996003;28;20461;-78
2022/12/17 18:43:24;;;;;;;103.53;46.43;;;-0.60;99.90;;;;;;4996346;28;20490;-78
2022/12/17 18:45:51;;;;;;;89.20;42.77;;;-0.60;99.90;;;;;;4995607;28;20466;-79
2022/12/17 18:48:19;;;;;;;71.57;37.23;;;-0.60;99.90;;;;;;4991310;28;20943;-79
2022/12/17 18:50:46;;;;;;;76.23;39.13;;;-0.70;99.90;;;;;;4988803;28;20450;-78
2022/12/17 18:53:13;;;;;;;74.17;37.33;;;-0.70;99.90;;;;;;4996094;28;20446;-78
2022/12/17 18:55:42;;;;;;;67.10;35.70;;;-0.80;99.90;;;;;;4996474;28;20450;-78
2022/12/17 18:58:10;;;;;;;61.03;33.37;;;-0.80;99.90;;;;;;4995921;28;20446;-79
2022/12/17 19:00:37;;;;;;;61.47;35.13;;;-0.80;99.90;;;;;;5008358;28;20452;-79
2022/12/17 19:03:05;;;;;;;56.10;32.93;;;-0.80;99.90;;;;;;4997088;28;20536;-78
2022/12/17 19:05:33;;;;;;;62.03;33.83;;;-0.80;99.90;;;;;;4997003;28;20453;-78
2022/12/17 19:08:00;;;;;;;63.17;33.90;;;-0.80;99.90;;;;;;4995575;28;20473;-78
2022/12/17 19:10:26;;;;;;;61.27;33.00;;;-0.90;99.90;;;;;;4995731;28;20447;-78
2022/12/17 19:12:54;;;;;;;61.33;32.17;;;-0.90;99.90;;;;;;4986598;28;20461;-78
2022/12/17 19:15:23;;;;;;;61.30;32.90;;;-0.80;99.90;;;;;;4998046;28;20453;-78
2022/12/17 19:17:52;;;;;;;59.97;33.53;;;-0.90;99.90;;;;;;4998189;28;20462;-78
2022/12/17 19:20:19;;;;;;;55.87;33.03;;;-0.90;99.90;;;;;;4998259;28;20457;-78
2022/12/17 19:22:46;;;;;;;65.37;33.83;;;-0.90;99.90;;;;;;4997559;28;20478;-78
2022/12/17 19:25:12;;;;;;;59.93;33.10;;;-0.90;99.90;;;;;;5011376;28;20537;-78
2022/12/17 19:27:45;;;;;;;74.57;48.15;;;-0.90;99.90;;;;;;4996639;28;20429;-79
2022/12/17 19:30:14;;;;;;;63.07;35.87;;;-0.70;99.90;;;;;;4997457;28;20205;-79
2022/12/17 19:32:41;;;;;;;61.03;34.90;;;-0.70;99.90;;;;;;4996313;28;20474;-77
2022/12/17 19:35:09;;;;;;;58.10;33.53;;;-0.80;99.90;;;;;;4996820;28;20454;-79
2022/12/17 19:37:35;;;;;;;59.93;34.63;;;-0.80;99.90;;;;;;4996828;28;20512;-78
2022/12/17 19:40:02;;;;;;;62.43;35.57;;;-0.80;99.90;;;;;;4997051;28;20949;-79
2022/12/17 19:42:29;;;;;;;61.80;34.73;;;-0.80;99.90;;;;;;4996459;28;20488;-79
2022/12/17 19:44:56;;;;;;;62.90;33.87;;;-0.80;99.90;;;;;;4996558;28;20952;-79
2022/12/17 19:47:24;;;;;;;58.57;34.03;;;-0.90;99.90;;;;;;4984537;28;20811;-79
2022/12/17 19:49:51;;;;;;;65.90;35.23;;;-0.90;99.90;;;;;;4987860;28;20459;-79
2022/12/17 19:52:18;;;;;;;69.87;38.03;;;-0.90;99.90;;;;;;4994419;28;20447;-78
2022/12/17 19:54:45;;;;;;;63.97;36.20;;;-1.00;99.90;;;;;;4994353;28;20457;-78
2022/12/17 19:57:11;;;;;;;67.07;36.27;;;-1.00;99.90;;;;;;4997123;28;20437;-78
2022/12/17 19:59:38;;;;;;;72.00;37.07;;;-1.00;99.90;;;;;;5002782;28;20457;-79
2022/12/17 20:02:05;;;;;;;70.73;35.30;;;-1.00;99.90;;;;;;4994852;28;20868;-78
2022/12/17 20:04:33;;;;;;;60.30;33.10;;;-1.00;99.90;;;;;;5003838;28;20495;-79
2022/12/17 20:07:00;;;;;;;64.63;34.77;;;-1.00;99.90;;;;;;5009103;28;20462;-79
2022/12/17 20:09:28;;;;;;;65.20;34.00;;;-1.00;99.90;;;;;;4994648;28;20955;-79
2022/12/17 20:11:55;;;;;;;66.43;34.37;;;-1.00;99.90;;;;;;4994310;28;20449;-79
2022/12/17 20:14:25;;;;;;;70.50;35.77;;;-1.00;99.90;;;;;;4996119;28;20886;-79
2022/12/17 20:16:55;;;;;;;62.73;35.00;;;-1.20;99.90;;;;;;4996826;28;20454;-78
2022/12/17 20:19:24;;;;;;;65.90;35.77;;;-1.10;99.90;;;;;;4995913;28;20451;-79
2022/12/17 20:21:53;;;;;;;64.40;35.00;;;-1.20;99.90;;;;;;4982650;28;20531;-79
2022/12/17 20:24:20;;;;;;;62.27;32.63;;;-1.20;99.90;;;;;;4995645;28;20577;-78
2022/12/17 20:26:50;;;;;;;62.63;33.83;;;-1.20;99.90;;;;;;5008325;28;20449;-79
2022/12/17 20:29:16;;;;;;;59.50;34.33;;;-1.10;99.90;;;;;;5000167;28;20458;-79
2022/12/17 20:31:48;;;;;;;60.10;32.63;;;-1.10;99.90;;;;;;5008147;28;20457;-79
2022/12/17 20:34:16;;;;;;;67.03;35.80;;;-1.10;99.90;;;;;;5016790;28;20453;-79
2022/12/17 20:36:44;;;;;;;60.90;33.63;;;-1.10;99.90;;;;;;5006149;28;20449;-80
2022/12/17 20:39:13;;;;;;;58.93;31.83;;;-1.10;99.90;;;;;;4998400;28;20457;-79
2022/12/17 20:41:40;;;;;;;61.67;32.47;;;-1.10;99.90;;;;;;4998235;28;20446;-79
2022/12/17 20:44:13;;;;;;;61.53;33.07;;;-1.10;99.90;;;;;;4998564;28;20530;-79
2022/12/17 20:46:41;;;;;;;61.13;31.43;;;-1.10;99.90;;;;;;5011015;28;20815;-79
2022/12/17 20:49:11;;;;;;;58.67;32.33;;;-1.10;99.90;;;;;;4986103;28;20825;-79
2022/12/17 20:51:39;;;;;;;57.87;32.37;;;-1.20;99.90;;;;;;5012045;28;20831;-80
2022/12/17 20:54:07;;;;;;;60.10;32.53;;;-1.20;99.90;;;;;;5009409;28;20899;-79
2022/12/17 20:56:35;;;;;;;62.70;34.40;;;-1.20;99.90;;;;;;4996197;28;20454;-78
2022/12/17 20:59:07;;;;;;;58.30;32.10;;;-1.20;99.90;;;;;;4993659;28;20454;-79
2022/12/17 21:01:36;;;;;;;65.37;32.87;;;-1.20;99.90;;;;;;4991316;28;20520;-79
2022/12/17 21:04:07;;;;;;;66.40;33.93;;;-1.20;99.90;;;;;;4998038;28;20489;-79
2022/12/17 21:06:37;;;;;;;60.10;32.30;;;-1.20;99.90;;;;;;4997140;28;20446;-79
2022/12/17 21:09:04;;;;;;;62.80;33.20;;;-1.30;99.90;;;;;;4996406;28;20446;-79
2022/12/17 21:11:35;;;;;;;66.60;36.37;;;-1.30;99.90;;;;;;4996621;28;20442;-79
2022/12/17 21:14:04;;;;;;;74.97;39.90;;;-1.20;99.90;;;;;;5006996;28;20441;-79
2022/12/17 21:16:35;;;;;;;73.47;38.63;;;-1.20;99.90;;;;;;4997567;28;20457;-79
2022/12/17 21:19:04;;;;;;;66.53;35.50;;;-1.20;99.90;;;;;;4996716;28;20454;-79
2022/12/17 21:21:33;;;;;;;64.40;35.90;;;-1.20;99.90;;;;;;4989986;28;21016;-79
2022/12/17 21:24:02;;;;;;;62.50;34.77;;;-1.20;99.90;;;;;;5015224;28;20493;-79
2022/12/17 21:26:34;;;;;;;60.13;33.40;;;-1.20;99.90;;;;;;4996254;28;20992;-79
2022/12/17 21:29:05;;;;;;;66.40;35.50;;;-1.10;99.90;;;;;;4995675;28;20446;-79
2022/12/17 21:31:35;;;;;;;65.33;34.73;;;-1.10;99.90;;;;;;4978103;28;20796;-78
2022/12/17 21:34:03;;;;;;;65.63;34.10;;;-1.10;99.90;;;;;;4995402;28;20525;-79
2022/12/17 21:36:32;;;;;;;63.37;33.47;;;-1.20;99.90;;;;;;4990053;28;20446;-79
2022/12/17 21:38:59;;;;;;;63.00;35.80;;;-1.20;99.90;;;;;;4990251;28;20808;-79
2022/12/17 21:41:32;;;;;;;74.03;36.37;;;-1.30;99.90;;;;;;4996030;28;20449;-80
2022/12/17 21:44:00;;;;;;;61.70;34.60;;;-1.30;99.90;;;;;;4983665;28;20500;-79
2022/12/17 21:46:30;;;;;;;62.33;34.70;;;-1.30;99.90;;;;;;4996689;28;20462;-79
2022/12/17 21:49:04;;;;;;;61.03;32.83;;;-1.20;99.90;;;;;;4988052;28;20926;-79
2022/12/17 21:51:33;;;;;;;60.97;33.33;;;-1.20;99.90;;;;;;4992727;28;20461;-79
2022/12/17 21:54:04;;;;;;;58.30;32.07;;;-1.30;99.90;;;;;;4995678;28;20453;-80
2022/12/17 21:56:30;;;;;;;61.57;32.77;;;-1.30;99.90;;;;;;4998584;28;21012;-78
2022/12/17 21:59:00;;;;;;;59.33;31.23;;;-1.30;99.90;;;;;;4992066;28;20439;-79
2022/12/17 22:01:33;;;;;;;60.57;32.20;;;-1.30;99.90;;;;;;4988028;28;20446;-79
2022/12/17 22:04:02;;;;;;;62.23;32.13;;;-1.40;99.90;;;;;;4995141;28;20596;-80
2022/12/17 22:06:37;;;;;;;70.88;38.38;;;-1.40;99.90;;;;;;4995860;28;20439;-79
2022/12/17 22:09:05;;;;;;;64.90;35.90;;;-1.40;99.90;;;;;;4983193;28;20234;-78
2022/12/17 22:11:31;;;;;;;66.80;35.17;;;-1.50;99.90;;;;;;4995260;28;20456;-79
2022/12/17 22:14:05;;;;;;;70.13;37.07;;;-1.60;99.90;;;;;;5002277;28;20552;-78
2022/12/17 22:16:45;;;;;;;62.63;34.37;;;-1.60;99.90;;;;;;5001908;28;20448;-79
2022/12/17 22:19:17;;;;;;;63.60;34.37;;;-1.70;99.90;;;;;;5000283;28;20461;-79
2022/12/17 22:21:46;;;;;;;66.83;35.17;;;-1.70;99.90;;;;;;4994962;28;20489;-79
2022/12/17 22:24:16;;;;;;;63.77;35.27;;;-1.80;99.90;;;;;;4994788;28;20549;-79
2022/12/17 22:26:43;;;;;;;66.33;32.87;;;-1.80;99.90;;;;;;4994827;28;20457;-79
2022/12/17 22:29:10;;;;;;;66.17;33.73;;;-1.80;99.90;;;;;;5011207;28;20449;-78
2022/12/17 22:34:22;;;;;;;67.80;36.57;;;-1.80;99.90;;;;;;5007930;28;20441;-79
2022/12/17 22:36:49;;;;;;;64.00;35.83;;;-1.90;99.90;;;;;;4995606;28;20450;-79
2022/12/17 22:39:16;;;;;;;66.67;35.30;;;-1.90;99.90;;;;;;5001095;28;20472;-79
2022/12/17 22:44:29;;;;;;;63.40;38.33;;;-2.00;99.90;;;;;;5000394;28;20489;-79
2022/12/17 22:46:57;;;;;;;66.87;37.10;;;-2.00;99.90;;;;;;5005259;28;20457;-79
2022/12/17 22:49:27;;;;;;;67.30;39.93;;;-2.10;99.90;;;;;;4996312;28;20941;-80
2022/12/17 22:51:54;;;;;;;70.70;35.50;;;-2.10;99.90;;;;;;4995303;28;20454;-80
2022/12/17 22:54:24;;;;;;;61.10;35.70;;;-2.20;99.90;;;;;;5000291;28;20454;-79
2022/12/17 22:56:51;;;;;;;68.47;36.73;;;-2.20;99.90;;;;;;5004356;28;20454;-79
2022/12/17 22:59:19;;;;;;;59.03;32.27;;;-2.20;99.90;;;;;;4995341;28;20446;-78
2022/12/17 23:01:47;;;;;;;65.87;35.30;;;-2.20;99.90;;;;;;4992028;28;20563;-79
2022/12/17 23:04:15;;;;;;;60.13;33.47;;;-2.20;99.90;;;;;;4986523;28;20487;-78
2022/12/17 23:06:45;;;;;;;58.80;32.47;;;-2.30;99.90;;;;;;4996014;28;20858;-79
2022/12/17 23:09:14;;;;;;;67.87;33.93;;;-2.30;99.90;;;;;;4984820;28;20458;-79
2022/12/17 23:11:41;;;;;;;64.57;35.73;;;-2.40;99.90;;;;;;4994354;28;20474;-80
2022/12/17 23:14:09;;;;;;;61.17;32.83;;;-2.40;99.90;;;;;;4992017;28;20442;-79
2022/12/17 23:16:39;;;;;;;62.40;33.23;;;-2.50;99.90;;;;;;4999052;28;20934;-80
2022/12/17 23:19:06;;;;;;;58.27;33.13;;;-2.50;99.90;;;;;;4992264;28;20451;-80
2022/12/17 23:21:34;;;;;;;60.97;32.67;;;-2.50;99.90;;;;;;4991655;28;21130;-79
2022/12/17 23:24:04;;;;;;;60.77;33.10;;;-2.50;99.90;;;;;;4987832;28;20560;-80
2022/12/17 23:26:33;;;;;;;60.60;32.73;;;-2.60;99.90;;;;;;4982220;28;20458;-78
2022/12/17 23:29:03;;;;;;;64.90;33.40;;;-2.70;99.90;;;;;;4992001;28;20813;-79
2022/12/17 23:31:32;;;;;;;60.57;31.20;;;-2.70;99.90;;;;;;4984967;28;20434;-79
2022/12/17 23:33:59;;;;;;;62.67;34.13;;;-2.70;99.90;;;;;;4979107;28;20486;-79
2022/12/17 23:36:28;;;;;;;59.70;32.73;;;-2.70;99.90;;;;;;4989021;28;20450;-80
2022/12/17 23:38:56;;;;;;;57.70;31.47;;;-2.80;99.90;;;;;;4994383;28;20446;-81
2022/12/17 23:41:29;;;;;;;61.73;31.17;;;-2.90;99.90;;;;;;4993954;28;20445;-78
2022/12/17 23:43:57;;;;;;;70.33;33.13;;;-3.00;99.90;;;;;;4987385;28;20478;-80
2022/12/17 23:46:25;;;;;;;63.30;32.13;;;-2.90;99.90;;;;;;4995144;28;20450;-79
2022/12/17 23:48:52;;;;;;;60.30;32.80;;;-3.00;99.90;;;;;;5008587;28;20438;-79
2022/12/17 23:51:22;;;;;;;54.00;31.67;;;-2.90;99.90;;;;;;4992327;28;20449;-79
2022/12/17 23:53:50;;;;;;;52.90;30.43;;;-3.00;99.90;;;;;;5007322;28;20449;-80
2022/12/17 23:56:19;;;;;;;53.13;31.40;;;-3.10;99.90;;;;;;5001298;28;20984;-80
2022/12/17 23:58:47;;;;;;;55.53;31.07;;;-3.20;99.90;;;;;;5006670;28;20454;-79
